createdAt,value
2024-01-11T00:00:05.105Z,95887.00
2024-01-11T00:01:05.381Z,95887.00
2024-01-11T00:02:05.034Z,95887.00
2024-01-11T00:03:04.952Z,95888.00
2024-01-11T00:04:04.929Z,95887.00
2024-01-11T00:05:04.935Z,95885.00
2024-01-11T00:06:04.893Z,95886.00
2024-01-11T00:07:04.825Z,95885.00
2024-01-11T00:08:04.687Z,95886.00
2024-01-11T00:09:04.648Z,95886.00
2024-01-11T00:10:04.552Z,95887.00
2024-01-11T00:11:04.949Z,95888.00
2024-01-11T00:12:04.464Z,95885.00
2024-01-11T00:13:04.367Z,95887.00
2024-01-11T00:14:04.839Z,95887.00
2024-01-11T00:15:04.316Z,95886.00
2024-01-11T00:16:04.234Z,95884.00
2024-01-11T00:17:04.175Z,95886.00
2024-01-11T00:18:04.194Z,95886.00
2024-01-11T00:19:04.119Z,95884.00
2024-01-11T00:20:03.990Z,95882.00
2024-01-11T00:21:03.873Z,95882.00
2024-01-11T00:22:03.820Z,95882.00
2024-01-11T00:23:03.754Z,95883.00
2024-01-11T00:24:03.605Z,95883.00
2024-01-11T00:25:03.539Z,95883.00
2024-01-11T00:26:03.601Z,95884.00
2024-01-11T00:27:03.389Z,95885.00
2024-01-11T00:28:03.340Z,95885.00
2024-01-11T00:29:03.321Z,95885.00
2024-01-11T00:30:03.199Z,95884.00
2024-01-11T00:31:03.241Z,95885.00
2024-01-11T00:32:03.109Z,95885.00
2024-01-11T00:33:03.133Z,95886.00
2024-01-11T00:34:03.021Z,95886.00
2024-01-11T00:35:02.941Z,95888.00
2024-01-11T00:36:02.835Z,95886.00
2024-01-11T00:37:02.788Z,95886.00
2024-01-11T00:38:02.708Z,95885.00
2024-01-11T00:39:02.647Z,95883.00
2024-01-11T00:40:02.569Z,95884.00
2024-01-11T00:41:02.546Z,95881.00
2024-01-11T00:42:02.466Z,95884.00
2024-01-11T00:43:02.432Z,95880.00
2024-01-11T00:44:02.430Z,95881.00
2024-01-11T00:45:02.363Z,95880.00
2024-01-11T00:46:02.220Z,95879.00
2024-01-11T00:47:02.258Z,95881.00
2024-01-11T00:48:02.195Z,95879.00
2024-01-11T00:49:02.191Z,95878.00
2024-01-11T00:50:02.075Z,95880.00
2024-01-11T00:51:01.884Z,95879.00
2024-01-11T00:52:01.818Z,95879.00
2024-01-11T00:53:01.800Z,95879.00
2024-01-11T00:54:01.647Z,95877.00
2024-01-11T00:55:01.591Z,95879.00
2024-01-11T00:56:01.559Z,95878.00
2024-01-11T00:57:01.416Z,95878.00
2024-01-11T00:58:01.341Z,95876.00
2024-01-11T00:59:01.349Z,95880.00
2024-01-11T01:00:01.275Z,95879.00
2024-01-11T01:01:01.383Z,95879.00
2024-01-11T01:02:01.149Z,95883.00
2024-01-11T01:03:01.013Z,95880.00
2024-01-11T01:04:00.992Z,95881.00
2024-01-11T01:05:00.925Z,95882.00
2024-01-11T01:06:00.867Z,95883.00
2024-01-11T01:07:00.699Z,95884.00
2024-01-11T01:08:00.778Z,95885.00
2024-01-11T01:09:00.615Z,95885.00
2024-01-11T01:10:00.527Z,95887.00
2024-01-11T01:11:00.503Z,95888.00
2024-01-11T01:12:00.414Z,95887.00
2024-01-11T01:13:00.321Z,95887.00
2024-01-11T01:14:00.388Z,95886.00
2024-01-11T01:15:00.335Z,95888.00
2024-01-11T01:16:00.382Z,95888.00
2024-01-11T01:17:00.109Z,95889.00
2024-01-11T01:18:00.296Z,95889.00
2024-01-11T01:19:00.168Z,95891.00
2024-01-11T01:19:59.926Z,95891.00
2024-01-11T01:20:59.894Z,95892.00
2024-01-11T01:21:59.776Z,95891.00
2024-01-11T01:22:59.687Z,95893.00
2024-01-11T01:23:59.594Z,95892.00
2024-01-11T01:24:59.580Z,95895.00
2024-01-11T01:25:59.454Z,95894.00
2024-01-11T01:26:59.358Z,95892.00
2024-01-11T01:27:59.276Z,95894.00
2024-01-11T01:28:59.320Z,95895.00
2024-01-11T01:29:59.166Z,95896.00
2024-01-11T01:30:59.166Z,95897.00
2024-01-11T01:31:59.094Z,95897.00
2024-01-11T01:32:59.092Z,95896.00
2024-01-11T01:33:59.038Z,95897.00
2024-01-11T01:34:58.808Z,95898.00
2024-01-11T01:35:58.950Z,95898.00
2024-01-11T01:36:58.613Z,95897.00
2024-01-11T01:37:58.574Z,95897.00
2024-01-11T01:38:58.504Z,95896.00
2024-01-11T01:39:58.408Z,95898.00
2024-01-11T01:40:58.364Z,95896.00
2024-01-11T01:41:58.270Z,95897.00
2024-01-11T01:42:58.178Z,95898.00
2024-01-11T01:43:58.137Z,95897.00
2024-01-11T01:44:58.019Z,95899.00
2024-01-11T01:45:57.909Z,95898.00
2024-01-11T01:46:57.895Z,95900.00
2024-01-11T01:47:57.841Z,95900.00
2024-01-11T01:48:57.763Z,95899.00
2024-01-11T01:49:57.805Z,95900.00
2024-01-11T01:50:57.563Z,95902.00
2024-01-11T01:51:57.499Z,95901.00
2024-01-11T01:52:57.474Z,95901.00
2024-01-11T01:53:57.401Z,95901.00
2024-01-11T01:54:57.289Z,95898.00
2024-01-11T01:55:57.454Z,95900.00
2024-01-11T01:56:57.121Z,95901.00
2024-01-11T01:57:57.020Z,95901.00
2024-01-11T01:58:56.982Z,95899.00
2024-01-11T01:59:56.850Z,95901.00
2024-01-11T02:00:56.895Z,95900.00
2024-01-11T02:01:56.724Z,95898.00
2024-01-11T02:02:56.803Z,95898.00
2024-01-11T02:03:56.625Z,95899.00
2024-01-11T02:04:56.564Z,95899.00
2024-01-11T02:05:56.541Z,95899.00
2024-01-11T02:06:56.440Z,95896.00
2024-01-11T02:07:56.317Z,95899.00
2024-01-11T02:08:56.145Z,95899.00
2024-01-11T02:09:56.082Z,95897.00
2024-01-11T02:10:56.439Z,95899.00
2024-01-11T02:11:55.951Z,95900.00
2024-01-11T02:12:55.845Z,95899.00
2024-01-11T02:13:55.808Z,95899.00
2024-01-11T02:14:55.667Z,95897.00
2024-01-11T02:15:55.891Z,95900.00
2024-01-11T02:16:55.579Z,95900.00
2024-01-11T02:17:55.542Z,95902.00
2024-01-11T02:18:55.460Z,95904.00
2024-01-11T02:19:55.336Z,95901.00
2024-01-11T02:20:55.197Z,95904.00
2024-01-11T02:21:55.143Z,95902.00
2024-01-11T02:22:55.046Z,95905.00
2024-01-11T02:23:55.009Z,95904.00
2024-01-11T02:24:54.901Z,95904.00
2024-01-11T02:25:54.953Z,95903.00
2024-01-11T02:26:54.738Z,95904.00
2024-01-11T02:27:54.681Z,95905.00
2024-01-11T02:28:54.757Z,95905.00
2024-01-11T02:29:54.543Z,95904.00
2024-01-11T02:30:54.515Z,95905.00
2024-01-11T02:31:54.434Z,95905.00
2024-01-11T02:32:54.632Z,95906.00
2024-01-11T02:33:54.308Z,95907.00
2024-01-11T02:34:54.179Z,95908.00
2024-01-11T02:35:54.501Z,95908.00
2024-01-11T02:36:54.035Z,95909.00
2024-01-11T02:37:53.950Z,95909.00
2024-01-11T02:38:53.905Z,95909.00
2024-01-11T02:39:53.801Z,95910.00
2024-01-11T02:40:53.748Z,95910.00
2024-01-11T02:41:53.593Z,95908.00
2024-01-11T02:42:53.519Z,95908.00
2024-01-11T02:43:53.562Z,95906.00
2024-01-11T02:44:53.407Z,95909.00
2024-01-11T02:45:53.323Z,95905.00
2024-01-11T02:46:53.288Z,95906.00
2024-01-11T02:47:53.313Z,95907.00
2024-01-11T02:48:53.244Z,95909.00
2024-01-11T02:49:53.041Z,95909.00
2024-01-11T02:50:52.991Z,95907.00
2024-01-11T02:51:52.851Z,95908.00
2024-01-11T02:52:52.825Z,95906.00
2024-01-11T02:53:52.711Z,95905.00
2024-01-11T02:54:52.614Z,95907.00
2024-01-11T02:55:52.933Z,95905.00
2024-01-11T02:56:52.511Z,95903.00
2024-01-11T02:57:52.461Z,95902.00
2024-01-11T02:58:52.334Z,95903.00
2024-01-11T02:59:52.274Z,95906.00
2024-01-11T03:00:52.467Z,95904.00
2024-01-11T03:01:52.083Z,95904.00
2024-01-11T03:02:52.168Z,95905.00
2024-01-11T03:03:52.925Z,95904.00
2024-01-11T03:04:51.910Z,95903.00
2024-01-11T03:05:51.918Z,95903.00
2024-01-11T03:06:51.835Z,95901.00
2024-01-11T03:07:51.672Z,95902.00
2024-01-11T03:08:51.600Z,95899.00
2024-01-11T03:09:51.526Z,95901.00
2024-01-11T03:10:51.484Z,95898.00
2024-01-11T03:11:51.341Z,95899.00
2024-01-11T03:12:51.296Z,95898.00
2024-01-11T03:13:51.172Z,95896.00
2024-01-11T03:14:51.089Z,95898.00
2024-01-11T03:15:51.464Z,95898.00
2024-01-11T03:16:50.961Z,95899.00
2024-01-11T03:17:50.913Z,95898.00
2024-01-11T03:18:50.854Z,95902.00
2024-01-11T03:19:50.676Z,95900.00
2024-01-11T03:20:50.632Z,95898.00
2024-01-11T03:21:50.521Z,95898.00
2024-01-11T03:22:50.422Z,95897.00
2024-01-11T03:23:50.334Z,95895.00
2024-01-11T03:24:50.251Z,95893.00
2024-01-11T03:25:50.196Z,95893.00
2024-01-11T03:26:50.263Z,95893.00
2024-01-11T03:27:50.038Z,95888.00
2024-01-11T03:28:49.964Z,95888.00
2024-01-11T03:29:49.865Z,95888.00
2024-01-11T03:30:49.905Z,95890.00
2024-01-11T03:31:49.736Z,95887.00
2024-01-11T03:32:49.846Z,95887.00
2024-01-11T03:33:49.664Z,95887.00
2024-01-11T03:34:49.478Z,95890.00
2024-01-11T03:35:49.391Z,95891.00
2024-01-11T03:36:49.362Z,95890.00
2024-01-11T03:37:49.264Z,95890.00
2024-01-11T03:39:49.112Z,95891.00
2024-01-11T03:40:49.420Z,95888.00
2024-01-11T03:41:48.979Z,95888.00
2024-01-11T03:42:48.934Z,95888.00
2024-01-11T03:43:48.822Z,95888.00
2024-01-11T03:44:48.847Z,95886.00
2024-01-11T03:45:48.930Z,95886.00
2024-01-11T03:46:48.627Z,95886.00
2024-01-11T03:47:48.617Z,95884.00
2024-01-11T03:48:48.556Z,95883.00
2024-01-11T03:49:48.566Z,95885.00
2024-01-11T03:50:48.466Z,95883.00
2024-01-11T03:51:48.254Z,95882.00
2024-01-11T03:52:48.168Z,95881.00
2024-01-11T03:53:48.140Z,95883.00
2024-01-11T03:54:48.054Z,95882.00
2024-01-11T03:55:47.985Z,95882.00
2024-01-11T03:56:47.925Z,95883.00
2024-01-11T03:57:47.858Z,95884.00
2024-01-11T03:58:47.729Z,95884.00
2024-01-11T03:59:47.735Z,95882.00
2024-01-11T04:00:47.682Z,95882.00
2024-01-11T04:01:47.569Z,95881.00
2024-01-11T04:02:47.532Z,95880.00
2024-01-11T04:03:47.471Z,95881.00
2024-01-11T04:04:47.322Z,95881.00
2024-01-11T04:05:47.336Z,95882.00
2024-01-11T04:06:47.228Z,95883.00
2024-01-11T04:07:47.076Z,95882.00
2024-01-11T04:08:47.087Z,95882.00
2024-01-11T04:09:46.918Z,95882.00
2024-01-11T04:10:46.865Z,95882.00
2024-01-11T04:11:46.822Z,95882.00
2024-01-11T04:12:46.720Z,95883.00
2024-01-11T04:13:46.634Z,95884.00
2024-01-11T04:14:46.607Z,95882.00
2024-01-11T04:15:46.546Z,95883.00
2024-01-11T04:16:46.404Z,95884.00
2024-01-11T04:17:46.419Z,95882.00
2024-01-11T04:18:46.348Z,95882.00
2024-01-11T04:19:46.203Z,95882.00
2024-01-11T04:20:46.481Z,95883.00
2024-01-11T04:21:46.071Z,95880.00
2024-01-11T04:22:46.035Z,95880.00
2024-01-11T04:23:45.991Z,95878.00
2024-01-11T04:24:45.922Z,95877.00
2024-01-11T04:25:45.870Z,95877.00
2024-01-11T04:26:45.760Z,95876.00
2024-01-11T04:27:52.974Z,95875.00
2024-01-11T04:28:52.926Z,95878.00
2024-01-11T04:29:52.944Z,95875.00
2024-01-11T04:30:53.259Z,95874.00
2024-01-11T04:32:00.664Z,95873.00
2024-01-11T04:33:00.888Z,95871.00
2024-01-11T04:34:00.786Z,95872.00
2024-01-11T04:35:00.728Z,95870.00
2024-01-11T04:36:00.732Z,95869.00
2024-01-11T04:37:00.609Z,95868.00
2024-01-11T04:38:00.656Z,95869.00
2024-01-11T04:39:00.564Z,95869.00
2024-01-11T04:40:00.584Z,95871.00
2024-01-11T04:41:00.560Z,95873.00
2024-01-11T04:42:00.553Z,95871.00
2024-01-11T04:43:00.517Z,95875.00
2024-01-11T04:44:00.535Z,95873.00
2024-01-11T04:45:00.522Z,95874.00
2024-01-11T04:46:00.474Z,95877.00
2024-01-11T04:47:00.477Z,95877.00
2024-01-11T04:48:00.603Z,95874.00
2024-01-11T04:49:00.550Z,95876.00
2024-01-11T04:50:00.546Z,95875.00
2024-01-11T04:51:00.418Z,95875.00
2024-01-11T04:52:00.373Z,95875.00
2024-01-11T04:53:00.426Z,95875.00
2024-01-11T04:54:00.386Z,95873.00
2024-01-11T04:55:00.369Z,95874.00
2024-01-11T04:56:00.466Z,95874.00
2024-01-11T04:57:00.341Z,95873.00
2024-01-11T04:58:00.350Z,95873.00
2024-01-11T04:59:00.384Z,95873.00
2024-01-11T05:00:03.527Z,95875.00
2024-01-11T05:01:00.368Z,95875.00
2024-01-11T05:02:00.358Z,95876.00
2024-01-11T05:03:00.283Z,95874.00
2024-01-11T05:04:00.452Z,95874.00
2024-01-11T05:05:00.423Z,95873.00
2024-01-11T05:06:00.460Z,95874.00
2024-01-11T05:07:00.259Z,95874.00
2024-01-11T05:08:00.344Z,95875.00
2024-01-11T05:09:00.230Z,95874.00
2024-01-11T05:10:00.251Z,95874.00
2024-01-11T05:11:00.298Z,95875.00
2024-01-11T05:12:00.180Z,95873.00
2024-01-11T05:13:00.191Z,95873.00
2024-01-11T05:14:00.352Z,95873.00
2024-01-11T05:15:00.218Z,95874.00
2024-01-11T05:16:00.213Z,95872.00
2024-01-11T05:17:00.218Z,95870.00
2024-01-11T05:18:00.431Z,95871.00
2024-01-11T05:19:00.239Z,95871.00
2024-01-11T05:20:00.313Z,95870.00
2024-01-11T05:21:00.216Z,95869.00
2024-01-11T05:22:00.073Z,95869.00
2024-01-11T05:23:00.156Z,95868.00
2024-01-11T05:24:00.114Z,95867.00
2024-01-11T05:25:00.090Z,95867.00
2024-01-11T05:26:00.079Z,95867.00
2024-01-11T05:27:00.062Z,95867.00
2024-01-11T05:28:00.069Z,95865.00
2024-01-11T05:29:00.075Z,95867.00
2024-01-11T05:30:00.067Z,95867.00
2024-01-11T05:31:00.332Z,95867.00
2024-01-11T05:32:00.157Z,95866.00
2024-01-11T05:33:00.174Z,95864.00
2024-01-11T05:34:00.186Z,95864.00
2024-01-11T05:35:00.011Z,95863.00
2024-01-11T05:35:59.988Z,95861.00
2024-01-11T05:37:01.145Z,95861.00
2024-01-11T05:38:00.018Z,95860.00
2024-01-11T05:38:59.988Z,95862.00
2024-01-11T05:39:59.984Z,95861.00
2024-01-11T05:41:00.034Z,95861.00
2024-01-11T05:41:59.953Z,95865.00
2024-01-11T05:42:59.950Z,95864.00
2024-01-11T05:43:59.966Z,95867.00
2024-01-11T05:44:59.893Z,95869.00
2024-01-11T05:45:59.931Z,95870.00
2024-01-11T05:46:59.962Z,95869.00
2024-01-11T05:47:59.957Z,95868.00
2024-01-11T05:48:59.943Z,95868.00
2024-01-11T05:49:59.979Z,95868.00
2024-01-11T05:51:00.271Z,95868.00
2024-01-11T05:51:59.870Z,95870.00
2024-01-11T05:52:59.921Z,95871.00
2024-01-11T05:53:59.842Z,95873.00
2024-01-11T05:54:59.832Z,95875.00
2024-01-11T05:55:59.901Z,95876.00
2024-01-11T05:56:59.826Z,95876.00
2024-01-11T05:57:59.855Z,95879.00
2024-01-11T05:58:59.856Z,95882.00
2024-01-11T05:59:59.811Z,95881.00
2024-01-11T06:00:59.909Z,95882.00
2024-01-11T06:01:59.805Z,95882.00
2024-01-11T06:02:59.790Z,95882.00
2024-01-11T06:03:59.792Z,95882.00
2024-01-11T06:04:59.901Z,95882.00
2024-01-11T06:06:00.426Z,95880.00
2024-01-11T06:06:59.760Z,95883.00
2024-01-11T06:07:59.857Z,95883.00
2024-01-11T06:08:59.815Z,95885.00
2024-01-11T06:09:59.834Z,95888.00
2024-01-11T06:11:00.052Z,95890.00
2024-01-11T06:11:59.850Z,95888.00
2024-01-11T06:12:59.908Z,95887.00
2024-01-11T06:13:59.932Z,95885.00
2024-01-11T06:14:59.937Z,95883.00
2024-01-11T06:15:59.986Z,95882.00
2024-01-11T06:17:00.097Z,95882.00
2024-01-11T06:18:00.125Z,95886.00
2024-01-11T06:19:00.159Z,95881.00
2024-01-11T06:20:00.034Z,95881.00
2024-01-11T06:21:00.304Z,95880.00
2024-01-11T06:22:00.063Z,95879.00
2024-01-11T06:23:00.118Z,95881.00
2024-01-11T06:24:00.107Z,95878.00
2024-01-11T06:25:00.186Z,95879.00
2024-01-11T06:26:00.330Z,95877.00
2024-01-11T06:27:00.196Z,95879.00
2024-01-11T06:28:00.194Z,95878.00
2024-01-11T06:29:00.315Z,95880.00
2024-01-11T06:30:00.267Z,95881.00
2024-01-11T06:31:00.315Z,95887.00
2024-01-11T06:32:00.425Z,95882.00
2024-01-11T06:33:00.413Z,95891.00
2024-01-11T06:34:00.463Z,95889.00
2024-01-11T06:35:00.439Z,95886.00
2024-01-11T06:36:00.423Z,95888.00
2024-01-11T06:37:00.783Z,95888.00
2024-01-11T06:38:00.425Z,95887.00
2024-01-11T06:39:00.372Z,95886.00
2024-01-11T06:40:00.422Z,95888.00
2024-01-11T06:41:00.487Z,95886.00
2024-01-11T06:42:00.508Z,95891.00
2024-01-11T06:43:00.501Z,95892.00
2024-01-11T06:44:02.049Z,95889.00
2024-01-11T06:45:00.536Z,95889.00
2024-01-11T06:46:00.545Z,95894.00
2024-01-11T06:47:00.795Z,95893.00
2024-01-11T06:48:00.729Z,95891.00
2024-01-11T06:49:00.813Z,95887.00
2024-01-11T06:50:00.718Z,95894.00
2024-01-11T06:51:02.157Z,95889.00
2024-01-11T06:52:00.689Z,95893.00
2024-01-11T06:53:00.707Z,95896.00
2024-01-11T06:54:00.675Z,95894.00
2024-01-11T06:55:00.703Z,95897.00
2024-01-11T06:56:00.784Z,95901.00
2024-01-11T06:57:00.709Z,95896.00
2024-01-11T06:58:00.763Z,95889.00
2024-01-11T06:59:00.839Z,95888.00
2024-01-11T07:00:01.025Z,95897.00
2024-01-11T07:01:00.892Z,95890.00
2024-01-11T07:02:00.977Z,95898.00
2024-01-11T07:03:00.948Z,95891.00
2024-01-11T07:04:01.031Z,95894.00
2024-01-11T07:05:01.085Z,95891.00
2024-01-11T07:06:01.116Z,95878.00
2024-01-11T07:07:01.094Z,95896.00
2024-01-11T07:08:01.118Z,95900.00
2024-01-11T07:09:01.168Z,95900.00
2024-01-11T07:10:01.157Z,95900.00
2024-01-11T07:11:01.190Z,95901.00
2024-01-11T07:12:01.220Z,95902.00
2024-01-11T07:13:01.190Z,95900.00
2024-01-11T07:14:01.226Z,95900.00
2024-01-11T07:15:01.212Z,95898.00
2024-01-11T07:16:01.218Z,95897.00
2024-01-11T07:17:01.302Z,95893.00
2024-01-11T07:18:01.595Z,95894.00
2024-01-11T07:19:01.349Z,95896.00
2024-01-11T07:20:01.337Z,95898.00
2024-01-11T07:21:01.244Z,95899.00
2024-01-11T07:22:01.281Z,95898.00
2024-01-11T07:23:01.325Z,95901.00
2024-01-11T07:24:01.304Z,95903.00
2024-01-11T07:25:01.346Z,95907.00
2024-01-11T07:26:01.343Z,95903.00
2024-01-11T07:27:01.798Z,95905.00
2024-01-11T07:28:01.401Z,95909.00
2024-01-11T07:29:01.415Z,95905.00
2024-01-11T07:30:01.411Z,95907.00
2024-01-11T07:31:01.493Z,95906.00
2024-01-11T07:32:02.589Z,95907.00
2024-01-11T07:33:01.569Z,95908.00
2024-01-11T07:34:01.505Z,95910.00
2024-01-11T07:35:01.429Z,95911.00
2024-01-11T07:36:01.552Z,95913.00
2024-01-11T07:37:01.401Z,95924.00
2024-01-11T07:38:01.394Z,95917.00
2024-01-11T07:39:01.406Z,95918.00
2024-01-11T07:40:01.385Z,95920.00
2024-01-11T07:41:01.374Z,95929.00
2024-01-11T07:42:01.355Z,95923.00
2024-01-11T07:43:01.342Z,95925.00
2024-01-11T07:44:01.402Z,95927.00
2024-01-11T07:45:01.309Z,95929.00
2024-01-11T07:46:01.308Z,95929.00
2024-01-11T07:47:02.453Z,95928.00
2024-01-11T07:48:01.394Z,95928.00
2024-01-11T07:49:01.372Z,95929.00
2024-01-11T07:50:01.357Z,95931.00
2024-01-11T07:51:01.353Z,95935.00
2024-01-11T07:52:01.317Z,95928.00
2024-01-11T07:53:01.370Z,95939.00
2024-01-11T07:54:01.406Z,95939.00
2024-01-11T07:55:01.323Z,95933.00
2024-01-11T07:56:01.293Z,95938.00
2024-01-11T07:57:01.807Z,95941.00
2024-01-11T07:58:01.375Z,95942.00
2024-01-11T07:59:01.441Z,95942.00
2024-01-11T08:00:01.369Z,95946.00
2024-01-11T08:01:01.360Z,95946.00
2024-01-11T08:02:01.893Z,95945.00
2024-01-11T08:03:01.496Z,95945.00
2024-01-11T08:04:01.536Z,95945.00
2024-01-11T08:05:01.530Z,95945.00
2024-01-11T08:06:01.599Z,95944.00
2024-01-11T08:07:01.562Z,95944.00
2024-01-11T08:08:01.644Z,95947.00
2024-01-11T08:09:01.669Z,95951.00
2024-01-11T08:10:01.666Z,95951.00
2024-01-11T08:11:02.645Z,95950.00
2024-01-11T08:12:01.635Z,95951.00
2024-01-11T08:13:01.558Z,95953.00
2024-01-11T08:14:01.613Z,95952.00
2024-01-11T08:15:01.530Z,95951.00
2024-01-11T08:16:01.481Z,95954.00
2024-01-11T08:17:01.510Z,95955.00
2024-01-11T08:18:01.467Z,95959.00
2024-01-11T08:19:01.490Z,95958.00
2024-01-11T08:20:01.472Z,95961.00
2024-01-11T08:21:01.402Z,95962.00
2024-01-11T08:22:01.807Z,95961.00
2024-01-11T08:23:01.338Z,95964.00
2024-01-11T08:24:03.427Z,95963.00
2024-01-11T08:25:01.303Z,95965.00
2024-01-11T08:26:01.341Z,95964.00
2024-01-11T08:27:01.230Z,95963.00
2024-01-11T08:28:01.248Z,95962.00
2024-01-11T08:29:01.231Z,95961.00
2024-01-11T08:30:01.327Z,95960.00
2024-01-11T08:31:01.367Z,95959.00
2024-01-11T08:32:02.045Z,95960.00
2024-01-11T08:33:01.395Z,95958.00
2024-01-11T08:34:01.467Z,95961.00
2024-01-11T08:35:01.498Z,95961.00
2024-01-11T08:36:01.315Z,95971.00
2024-01-11T08:37:01.319Z,95963.00
2024-01-11T08:38:01.430Z,95963.00
2024-01-11T08:39:01.280Z,95965.00
2024-01-11T08:40:01.305Z,95967.00
2024-01-11T08:41:01.365Z,95969.00
2024-01-11T08:42:01.320Z,95969.00
2024-01-11T08:43:01.327Z,95965.00
2024-01-11T08:44:01.293Z,95963.00
2024-01-11T08:45:01.697Z,95968.00
2024-01-11T08:46:01.276Z,95964.00
2024-01-11T08:47:01.307Z,95966.00
2024-01-11T08:48:01.471Z,95963.00
2024-01-11T08:49:01.291Z,95964.00
2024-01-11T08:50:01.273Z,95964.00
2024-01-11T08:51:01.907Z,95964.00
2024-01-11T08:52:01.543Z,95965.00
2024-01-11T08:53:01.337Z,95961.00
2024-01-11T08:54:01.288Z,95968.00
2024-01-11T08:55:01.298Z,95964.00
2024-01-11T08:56:01.256Z,95960.00
2024-01-11T08:57:01.173Z,95960.00
2024-01-11T08:58:01.181Z,95967.00
2024-01-11T08:59:01.219Z,95963.00
2024-01-11T09:00:01.225Z,95962.00
2024-01-11T09:01:01.217Z,95962.00
2024-01-11T09:02:09.988Z,95957.00
2024-01-11T09:03:02.280Z,95957.00
2024-01-11T09:04:01.183Z,95957.00
2024-01-11T09:05:01.180Z,95957.00
2024-01-11T09:06:01.252Z,95957.00
2024-01-11T09:07:01.375Z,95959.00
2024-01-11T09:08:01.143Z,95959.00
2024-01-11T09:09:01.050Z,95958.00
2024-01-11T09:10:00.996Z,95958.00
2024-01-11T09:11:01.044Z,95961.00
2024-01-11T09:12:01.341Z,95961.00
2024-01-11T09:13:00.978Z,95961.00
2024-01-11T09:14:00.929Z,95960.00
2024-01-11T09:15:00.887Z,95962.00
2024-01-11T09:16:00.818Z,95949.00
2024-01-11T09:17:00.816Z,95960.00
2024-01-11T09:18:01.022Z,95963.00
2024-01-11T09:19:00.832Z,95964.00
2024-01-11T09:20:01.111Z,95964.00
2024-01-11T09:21:00.793Z,95965.00
2024-01-11T09:22:00.797Z,95965.00
2024-01-11T09:23:00.829Z,95962.00
2024-01-11T09:24:00.810Z,95962.00
2024-01-11T09:25:00.878Z,95960.00
2024-01-11T09:26:00.909Z,95958.00
2024-01-11T09:27:01.322Z,95958.00
2024-01-11T09:28:00.851Z,95959.00
2024-01-11T09:29:00.941Z,95965.00
2024-01-11T09:30:00.910Z,95959.00
2024-01-11T09:31:01.092Z,95959.00
2024-01-11T09:32:01.257Z,95957.00
2024-01-11T09:33:01.103Z,95958.00
2024-01-11T09:34:00.981Z,95957.00
2024-01-11T09:35:01.086Z,95959.00
2024-01-11T09:36:01.050Z,95958.00
2024-01-11T09:37:01.058Z,95960.00
2024-01-11T09:38:01.157Z,95960.00
2024-01-11T09:39:01.191Z,95961.00
2024-01-11T09:40:01.126Z,95966.00
2024-01-11T09:41:01.160Z,95963.00
2024-01-11T09:42:01.332Z,95962.00
2024-01-11T09:43:01.207Z,95961.00
2024-01-11T09:44:01.298Z,95954.00
2024-01-11T09:45:01.273Z,95959.00
2024-01-11T09:46:01.334Z,95960.00
2024-01-11T09:47:01.874Z,95960.00
2024-01-11T09:48:01.404Z,95955.00
2024-01-11T09:49:01.382Z,95954.00
2024-01-11T09:50:01.388Z,95954.00
2024-01-11T09:51:01.387Z,95955.00
2024-01-11T09:52:01.831Z,95959.00
2024-01-11T09:53:01.402Z,95961.00
2024-01-11T09:54:01.368Z,95962.00
2024-01-11T09:55:01.397Z,95960.00
2024-01-11T09:56:01.441Z,95953.00
2024-01-11T09:57:01.806Z,95951.00
2024-01-11T09:58:01.398Z,95955.00
2024-01-11T09:59:01.369Z,95952.00
2024-01-11T10:00:01.446Z,95951.00
2024-01-11T10:01:01.387Z,95953.00
2024-01-11T10:02:01.898Z,95952.00
2024-01-11T10:03:01.378Z,95954.00
2024-01-11T10:04:01.390Z,95951.00
2024-01-11T10:05:01.395Z,95953.00
2024-01-11T10:06:01.429Z,95955.00
2024-01-11T10:07:01.875Z,95955.00
2024-01-11T10:08:01.355Z,95953.00
2024-01-11T10:09:01.339Z,95951.00
2024-01-11T10:10:01.430Z,95953.00
2024-01-11T10:11:01.400Z,95950.00
2024-01-11T10:12:01.851Z,95948.00
2024-01-11T10:13:01.368Z,95944.00
2024-01-11T10:14:01.466Z,95945.00
2024-01-11T10:15:01.394Z,95941.00
2024-01-11T10:16:01.362Z,95940.00
2024-01-11T10:17:01.905Z,95939.00
2024-01-11T10:18:01.489Z,95940.00
2024-01-11T10:19:01.482Z,95941.00
2024-01-11T10:20:01.466Z,95942.00
2024-01-11T10:21:01.407Z,95942.00
2024-01-11T10:22:01.321Z,95942.00
2024-01-11T10:23:01.352Z,95940.00
2024-01-11T10:24:01.321Z,95940.00
2024-01-11T10:25:01.282Z,95938.00
2024-01-11T10:26:01.337Z,95940.00
2024-01-11T10:27:01.348Z,95933.00
2024-01-11T10:28:01.315Z,95931.00
2024-01-11T10:29:01.466Z,95927.00
2024-01-11T10:30:01.323Z,95924.00
2024-01-11T10:31:01.314Z,95925.00
2024-01-11T10:32:01.461Z,95923.00
2024-01-11T10:33:01.460Z,95923.00
2024-01-11T10:34:01.259Z,95922.00
2024-01-11T10:35:02.801Z,95923.00
2024-01-11T10:36:01.200Z,95920.00
2024-01-11T10:37:01.168Z,95918.00
2024-01-11T10:38:01.212Z,95915.00
2024-01-11T10:39:01.208Z,95913.00
2024-01-11T10:40:01.171Z,95912.00
2024-01-11T10:41:01.164Z,95909.00
2024-01-11T10:42:04.103Z,95909.00
2024-01-11T10:43:01.094Z,95915.00
2024-01-11T10:44:01.083Z,95911.00
2024-01-11T10:45:01.036Z,95913.00
2024-01-11T10:46:01.074Z,95914.00
2024-01-11T10:47:01.389Z,95914.00
2024-01-11T10:48:03.867Z,95915.00
2024-01-11T10:49:00.991Z,95911.00
2024-01-11T10:50:00.959Z,95910.00
2024-01-11T10:51:00.832Z,95914.00
2024-01-11T10:52:00.847Z,95903.00
2024-01-11T10:53:00.834Z,95901.00
2024-01-11T10:54:02.324Z,95902.00
2024-01-11T10:55:00.745Z,95900.00
2024-01-11T10:56:00.806Z,95898.00
2024-01-11T10:57:00.839Z,95899.00
2024-01-11T10:58:00.710Z,95899.00
2024-01-11T10:59:00.740Z,95905.00
2024-01-11T11:00:00.582Z,95900.00
2024-01-11T11:01:00.599Z,95901.00
2024-01-11T11:02:00.708Z,95899.00
2024-01-11T11:03:00.689Z,95902.00
2024-01-11T11:04:00.497Z,95902.00
2024-01-11T11:05:00.636Z,95905.00
2024-01-11T11:06:00.552Z,95902.00
2024-01-11T11:07:00.379Z,95906.00
2024-01-11T11:08:00.366Z,95902.00
2024-01-11T11:09:00.336Z,95899.00
2024-01-11T11:10:00.303Z,95900.00
2024-01-11T11:11:00.262Z,95900.00
2024-01-11T11:12:00.351Z,95900.00
2024-01-11T11:13:00.218Z,95904.00
2024-01-11T11:14:00.239Z,95903.00
2024-01-11T11:15:00.305Z,95905.00
2024-01-11T11:16:02.045Z,95902.00
2024-01-11T11:17:00.305Z,95902.00
2024-01-11T11:18:00.424Z,95904.00
2024-01-11T11:19:00.516Z,95903.00
2024-01-11T11:20:00.391Z,95895.00
2024-01-11T11:21:00.396Z,95893.00
2024-01-11T11:22:00.874Z,95892.00
2024-01-11T11:23:00.585Z,95890.00
2024-01-11T11:24:00.480Z,95894.00
2024-01-11T11:25:00.485Z,95888.00
2024-01-11T11:26:00.639Z,95889.00
2024-01-11T11:27:00.878Z,95888.00
2024-01-11T11:28:01.155Z,95890.00
2024-01-11T11:29:00.720Z,95893.00
2024-01-11T11:30:00.673Z,95890.00
2024-01-11T11:31:00.647Z,95885.00
2024-01-11T11:32:00.783Z,95882.00
2024-01-11T11:33:00.786Z,95880.00
2024-01-11T11:34:02.776Z,95881.00
2024-01-11T11:35:00.732Z,95884.00
2024-01-11T11:36:00.661Z,95884.00
2024-01-11T11:37:00.637Z,95884.00
2024-01-11T11:38:00.642Z,95884.00
2024-01-11T11:39:00.571Z,95884.00
2024-01-11T11:40:01.945Z,95882.00
2024-01-11T11:41:00.532Z,95883.00
2024-01-11T11:42:00.489Z,95880.00
2024-01-11T11:43:00.436Z,95879.00
2024-01-11T11:44:00.425Z,95881.00
2024-01-11T11:45:00.389Z,95875.00